createdAt,value
2023-05-17T00:04:17.406Z,3.10
2023-05-17T00:07:19.831Z,2.80
2023-05-17T00:10:22.019Z,3.50
2023-05-17T00:13:24.426Z,3.50
2023-05-17T00:16:27.370Z,3.40
2023-05-17T00:19:29.682Z,4.20
2023-05-17T00:22:32.692Z,3.30
2023-05-17T00:25:35.220Z,4.20
2023-05-17T00:28:37.596Z,3.90
2023-05-17T00:31:39.911Z,3.30
2023-05-17T00:34:42.310Z,3.80
2023-05-17T00:37:48.245Z,3.50
2023-05-17T00:40:51.295Z,3.80
2023-05-17T00:43:53.778Z,3.60
2023-05-17T00:46:56.251Z,3.60
2023-05-17T00:49:58.524Z,3.40
2023-05-17T00:53:01.307Z,3.30
2023-05-17T00:56:04.501Z,3.10
2023-05-17T00:59:08.731Z,3.00
2023-05-17T01:02:12.104Z,3.70
2023-05-17T01:05:16.408Z,4.10
2023-05-17T01:08:18.614Z,3.10
2023-05-17T01:11:50.815Z,3.30
2023-05-17T01:15:08.009Z,3.20
2023-05-17T01:18:17.199Z,4.30
2023-05-17T01:21:56.147Z,3.50
2023-05-17T01:25:10.801Z,3.40
2023-05-17T01:28:15.370Z,3.90
2023-05-17T02:04:17.543Z,3.70
2023-05-17T02:07:20.035Z,3.40
2023-05-17T02:10:22.625Z,3.20
2023-05-17T02:13:25.052Z,3.40
2023-05-17T02:16:27.257Z,3.40
2023-05-17T02:19:29.660Z,3.40
2023-05-17T02:22:32.048Z,3.20
2023-05-17T02:25:34.383Z,3.30
2023-05-17T02:28:36.754Z,3.20
2023-05-17T02:31:39.146Z,4.00
2023-05-17T02:34:41.452Z,3.80
2023-05-17T02:37:43.963Z,4.30
2023-05-17T02:40:48.290Z,2.90
2023-05-17T02:43:51.033Z,3.00
2023-05-17T02:46:53.341Z,3.90
2023-05-17T02:49:55.645Z,3.40
2023-05-17T02:52:57.834Z,3.40
2023-05-17T02:56:00.173Z,2.80
2023-05-17T02:59:02.554Z,3.40
2023-05-17T03:02:05.220Z,3.30
2023-05-17T03:05:08.511Z,3.80
2023-05-17T03:08:14.025Z,3.40
2023-05-17T03:11:16.597Z,3.30
2023-05-17T03:14:19.121Z,3.50
2023-05-17T03:17:21.699Z,3.40
2023-05-17T03:20:24.822Z,3.60
2023-05-17T03:23:27.070Z,3.40
2023-05-17T03:30:25.508Z,3.60
2023-05-17T03:33:28.364Z,4.00
2023-05-17T03:36:31.111Z,4.20
2023-05-17T03:39:33.957Z,3.60
2023-05-17T03:42:36.940Z,3.60
2023-05-17T03:45:39.597Z,3.10
2023-05-17T03:48:41.731Z,3.60
2023-05-17T03:51:45.539Z,3.80
2023-05-17T03:54:48.392Z,3.20
2023-05-17T03:57:51.633Z,4.00
2023-05-17T04:04:20.742Z,4.50
2023-05-17T04:07:23.283Z,3.60
2023-05-17T04:10:25.699Z,3.70
2023-05-17T04:13:27.941Z,3.70
2023-05-17T04:16:30.117Z,4.10
2023-05-17T04:19:32.768Z,3.60
2023-05-17T04:22:37.321Z,3.80
2023-05-17T04:25:40.022Z,4.10
2023-05-17T04:28:43.914Z,3.80
2023-05-17T04:31:49.330Z,4.20
2023-05-17T04:34:52.678Z,3.80
2023-05-17T04:37:55.155Z,3.60
2023-05-17T04:41:05.682Z,3.70
2023-05-17T04:44:09.627Z,3.50
2023-05-17T04:47:12.701Z,4.40
2023-05-17T04:50:15.080Z,3.80
2023-05-17T04:53:17.766Z,3.80
2023-05-17T04:56:20.548Z,4.00
2023-05-17T04:59:22.906Z,4.90
2023-05-17T05:02:26.266Z,4.10
2023-05-17T05:05:29.207Z,4.40
2023-05-17T05:08:34.288Z,4.20
2023-05-17T05:11:36.940Z,3.40
2023-05-17T05:14:39.169Z,3.90
2023-05-17T05:17:42.145Z,3.80
2023-05-17T05:20:44.483Z,3.40
2023-05-17T05:23:46.669Z,3.20
2023-05-17T05:26:49.841Z,3.30
2023-05-17T05:33:43.292Z,4.10
2023-05-17T05:36:46.959Z,3.90
2023-05-17T05:39:51.686Z,4.00
2023-05-17T05:42:54.653Z,4.00
2023-05-17T05:45:56.925Z,3.90
2023-05-17T05:48:59.034Z,4.10
2023-05-17T05:52:02.690Z,4.70
2023-05-17T05:55:06.025Z,4.10
2023-05-17T05:58:09.393Z,4.00
2023-05-17T06:04:22.731Z,3.70
2023-05-17T06:07:32.193Z,4.20
2023-05-17T06:10:34.298Z,3.70
2023-05-17T06:13:36.535Z,3.10
2023-05-17T06:16:38.788Z,3.90
2023-05-17T06:19:40.948Z,3.40
2023-05-17T06:22:44.203Z,3.10
2023-05-17T06:25:46.262Z,3.60
2023-05-17T06:35:24.664Z,4.10
2023-05-17T06:38:27.203Z,3.00
2023-05-17T06:41:29.705Z,4.10
2023-05-17T06:44:32.405Z,3.30
2023-05-17T06:47:35.543Z,3.20
2023-05-17T06:50:38.313Z,3.60
2023-05-17T06:53:40.706Z,3.60
2023-05-17T06:56:43.432Z,3.10
2023-05-17T06:59:46.124Z,3.20
2023-05-17T07:02:49.104Z,3.10
2023-05-17T07:05:51.643Z,2.40
2023-05-17T07:08:56.793Z,2.70
2023-05-17T07:11:59.070Z,2.50
2023-05-17T07:15:03.512Z,2.60
2023-05-17T07:18:06.283Z,3.00
2023-05-17T07:21:09.110Z,2.90
2023-05-17T07:24:11.434Z,3.20
2023-05-17T07:27:13.488Z,2.50
2023-05-17T07:30:15.871Z,2.90
2023-05-17T07:33:18.058Z,3.40
2023-05-17T07:36:20.764Z,2.90
2023-05-17T07:39:26.071Z,2.40
2023-05-17T07:42:28.513Z,2.20
2023-05-17T07:45:31.603Z,2.70
2023-05-17T07:48:34.406Z,2.80
2023-05-17T07:51:36.899Z,2.50
2023-05-17T07:54:39.428Z,2.30
2023-05-17T07:57:41.693Z,2.30
2023-05-17T08:00:44.118Z,2.50
2023-05-17T08:03:49.155Z,2.70
2023-05-17T08:06:51.537Z,2.20
2023-05-17T08:09:53.847Z,1.90
2023-05-17T08:12:56.215Z,2.30
2023-05-17T08:16:12.704Z,1.90
2023-05-17T08:19:18.996Z,2.50
2023-05-17T08:22:21.429Z,2.50
2023-05-17T08:25:23.748Z,2.20
2023-05-17T08:28:25.870Z,1.80
2023-05-17T08:31:27.998Z,2.00
2023-05-17T08:34:30.259Z,2.00
2023-05-17T08:37:33.960Z,2.20
2023-05-17T08:40:36.344Z,1.70
2023-05-17T08:43:39.764Z,2.10
2023-05-17T08:46:44.658Z,2.10
2023-05-17T08:49:48.277Z,1.80
2023-05-17T08:52:51.828Z,1.70
2023-05-17T08:56:00.689Z,2.20
2023-05-17T08:59:06.009Z,1.80
2023-05-17T09:02:08.859Z,1.90
2023-05-17T09:05:11.583Z,2.00
2023-05-17T09:08:14.589Z,1.80
2023-05-17T09:11:25.673Z,1.70
2023-05-17T09:14:35.435Z,3.20
2023-05-17T09:17:38.651Z,1.60
2023-05-17T09:20:42.274Z,1.80
2023-05-17T09:24:01.847Z,1.60
2023-05-17T09:27:08.574Z,1.60
2023-05-17T09:30:12.007Z,1.50
2023-05-17T09:33:17.647Z,2.10
2023-05-17T09:36:23.520Z,1.90
2023-05-17T09:39:26.060Z,2.20
2023-05-17T09:42:28.423Z,1.70
2023-05-17T09:45:33.047Z,1.50
2023-05-17T09:48:38.953Z,1.70
2023-05-17T09:51:43.455Z,1.30
2023-05-17T09:54:53.698Z,1.50
2023-05-17T09:58:04.153Z,1.40
2023-05-17T10:04:23.584Z,1.60
2023-05-17T10:07:28.195Z,1.50
2023-05-17T10:10:31.135Z,1.60
2023-05-17T10:13:48.110Z,1.40
2023-05-17T10:16:51.588Z,1.00
2023-05-17T10:19:55.296Z,1.40
2023-05-17T10:22:58.807Z,1.60
2023-05-17T10:26:02.697Z,1.40
2023-05-17T10:29:06.672Z,1.40
2023-05-17T10:32:09.703Z,1.20
2023-05-17T10:35:15.473Z,1.50
2023-05-17T10:38:20.372Z,1.40
2023-05-17T10:41:25.561Z,1.30
2023-05-17T10:44:31.080Z,1.50
2023-05-17T10:47:34.666Z,1.80
2023-05-17T10:50:47.382Z,1.80
2023-05-17T10:54:10.256Z,1.60
2023-05-17T11:00:55.186Z,1.40
2023-05-17T11:07:20.588Z,1.50
2023-05-17T11:10:23.180Z,1.50
2023-05-17T11:13:28.946Z,1.50
2023-05-17T11:16:38.709Z,1.40
2023-05-17T11:19:51.784Z,1.80
2023-05-17T11:23:00.295Z,1.40
2023-05-17T11:26:18.201Z,1.40
2023-05-17T11:29:20.786Z,1.30
2023-05-17T11:32:31.528Z,1.30
2023-05-17T11:35:37.791Z,1.00
2023-05-17T11:38:40.010Z,1.20
2023-05-17T11:42:24.310Z,1.30
2023-05-17T11:45:27.132Z,1.20
2023-05-17T11:48:31.095Z,1.40
2023-05-17T11:51:34.469Z,1.40
2023-05-17T11:54:39.341Z,1.40
2023-05-17T11:57:42.051Z,1.50
2023-05-17T12:00:45.473Z,1.50
2023-05-17T12:03:50.577Z,1.30
2023-05-17T12:06:56.701Z,1.70
2023-05-17T12:09:58.995Z,1.50
2023-05-17T12:13:01.673Z,1.60
2023-05-17T12:16:07.762Z,1.10
2023-05-17T12:19:28.375Z,1.50
2023-05-17T12:22:30.975Z,1.30
2023-05-17T12:25:33.342Z,1.60
2023-05-17T12:28:37.825Z,1.80
2023-05-17T12:31:44.189Z,1.90
2023-05-17T12:34:48.251Z,1.90
2023-05-17T12:37:50.888Z,2.50
2023-05-17T12:40:53.201Z,2.20
2023-05-17T12:44:06.138Z,2.40
2023-05-17T12:47:10.713Z,2.20
2023-05-17T12:50:12.985Z,2.70
2023-05-17T12:53:15.933Z,2.30
2023-05-17T12:56:24.009Z,2.00
2023-05-17T12:59:26.436Z,2.40
2023-05-17T13:02:28.892Z,2.40
2023-05-17T13:05:31.470Z,2.10
2023-05-17T13:08:34.662Z,2.10
2023-05-17T13:11:41.686Z,3.10
2023-05-17T13:14:47.444Z,2.00
2023-05-17T13:17:50.543Z,2.40
2023-05-17T13:20:52.780Z,3.00
2023-05-17T13:23:54.901Z,2.60
2023-05-17T13:26:57.169Z,3.60
2023-05-17T13:29:59.240Z,2.80
2023-05-17T13:33:01.919Z,2.50
2023-05-17T13:36:05.307Z,2.50
2023-05-17T13:39:07.686Z,2.80
2023-05-17T13:42:11.132Z,2.30
2023-05-17T13:45:14.042Z,3.10
2023-05-17T13:48:16.267Z,2.50
2023-05-17T13:51:18.419Z,2.60
2023-05-17T13:54:22.405Z,3.00
2023-05-17T13:57:24.705Z,2.50
2023-05-17T14:04:21.706Z,2.90
2023-05-17T14:07:23.923Z,2.70
2023-05-17T14:10:26.041Z,2.80
2023-05-17T14:13:28.599Z,2.40
2023-05-17T14:16:31.415Z,2.40
2023-05-17T14:19:33.693Z,2.20
2023-05-17T14:22:36.140Z,1.70
2023-05-17T14:25:38.406Z,2.00
2023-05-17T14:28:41.011Z,2.30
2023-05-17T14:31:43.583Z,2.20
2023-05-17T14:34:45.738Z,2.20
2023-05-17T14:37:47.956Z,2.30
2023-05-17T14:40:50.244Z,2.70
2023-05-17T14:43:52.460Z,2.40
2023-05-17T14:46:54.865Z,3.10
2023-05-17T14:49:57.393Z,3.00
2023-05-17T14:52:59.615Z,3.50
2023-05-17T14:56:02.475Z,2.80
2023-05-17T14:59:05.082Z,3.80
2023-05-17T15:02:07.660Z,3.60
2023-05-17T15:05:11.037Z,3.30
2023-05-17T15:08:15.207Z,3.90
2023-05-17T15:11:17.432Z,3.30
2023-05-17T15:14:22.635Z,3.80
2023-05-17T15:17:24.996Z,2.70
2023-05-17T15:20:27.611Z,3.30
2023-05-17T15:23:29.798Z,2.80
2023-05-17T15:26:32.086Z,3.10
2023-05-17T15:29:34.761Z,3.00
2023-05-17T15:32:37.101Z,2.90
2023-05-17T15:35:42.534Z,2.70
2023-05-17T15:38:45.725Z,2.60
2023-05-17T15:41:48.278Z,2.50
2023-05-17T15:44:50.704Z,2.40
2023-05-17T15:47:54.007Z,2.60
2023-05-17T15:50:56.979Z,2.60
2023-05-17T15:53:59.275Z,2.90
2023-05-17T15:57:01.533Z,2.50
2023-05-17T16:00:04.949Z,2.30
2023-05-17T16:03:07.239Z,3.00
2023-05-17T16:19:41.450Z,2.80
2023-05-17T16:22:46.025Z,3.00
2023-05-17T16:25:48.099Z,2.90
2023-05-17T16:28:51.214Z,2.70
2023-05-17T16:31:54.013Z,2.80
2023-05-17T16:34:56.079Z,3.20
2023-05-17T16:37:58.187Z,3.20
2023-05-17T16:41:03.500Z,3.40
2023-05-17T16:49:58.986Z,3.50
2023-05-17T16:53:01.216Z,4.30
2023-05-17T16:56:03.527Z,3.80
2023-05-17T16:59:06.468Z,5.00
2023-05-17T17:02:08.765Z,5.00
2023-05-17T17:05:10.853Z,4.40
2023-05-17T17:08:13.052Z,4.10
2023-05-17T17:11:19.888Z,4.40
2023-05-17T17:14:22.766Z,4.30
2023-05-17T17:17:24.867Z,3.80
2023-05-17T17:20:27.343Z,3.70
2023-05-17T17:23:29.698Z,3.50
2023-05-17T17:26:32.679Z,3.80
2023-05-17T17:29:34.841Z,4.40
2023-05-17T17:32:37.242Z,3.90
2023-05-17T17:35:39.688Z,3.90
2023-05-17T17:38:41.858Z,3.90
2023-05-17T17:41:44.087Z,4.40
2023-05-17T17:51:32.302Z,4.00
2023-05-17T17:54:34.408Z,4.10
2023-05-17T17:57:36.627Z,4.40
2023-05-17T18:04:18.843Z,4.00
2023-05-17T18:07:21.596Z,4.20
2023-05-17T18:10:24.025Z,4.30
2023-05-17T18:13:26.264Z,3.90
2023-05-17T18:16:29.240Z,3.90
2023-05-17T18:19:31.822Z,4.90
2023-05-17T18:22:34.849Z,4.00
2023-05-17T18:25:37.231Z,4.60
2023-05-17T18:28:42.787Z,4.60
2023-05-17T18:31:47.654Z,4.30
2023-05-17T18:34:50.359Z,5.00
2023-05-17T18:37:53.250Z,4.30
2023-05-17T18:40:55.467Z,4.60
2023-05-17T18:44:02.122Z,5.00
2023-05-17T18:47:04.569Z,4.50
2023-05-17T18:50:07.869Z,4.50
2023-05-17T18:53:10.470Z,4.70
2023-05-17T18:56:15.074Z,5.00
2023-05-17T18:59:17.242Z,5.40
2023-05-17T19:02:19.582Z,4.50
2023-05-17T19:05:22.182Z,4.80
2023-05-17T19:08:24.860Z,5.00
2023-05-17T19:11:28.996Z,4.30
2023-05-17T19:14:32.435Z,4.20
2023-05-17T19:17:34.679Z,4.30
2023-05-17T19:20:37.343Z,4.70
2023-05-17T19:23:39.816Z,4.10
2023-05-17T19:26:42.097Z,4.20
2023-05-17T19:29:44.680Z,4.30
2023-05-17T19:32:46.894Z,6.00
2023-05-17T19:35:50.150Z,5.00
2023-05-17T19:38:52.516Z,5.80
2023-05-17T19:41:54.779Z,5.40
2023-05-17T19:44:57.060Z,6.30
2023-05-17T19:47:59.482Z,6.20
2023-05-17T19:51:01.906Z,6.80
2023-05-17T19:54:04.390Z,7.40
2023-05-17T19:57:06.998Z,7.20
2023-05-17T20:00:10.174Z,6.00
2023-05-17T20:03:12.523Z,6.80
2023-05-17T20:06:15.434Z,6.30
2023-05-17T20:09:18.107Z,7.20
2023-05-17T20:12:21.232Z,6.80
2023-05-17T20:15:24.395Z,6.60
2023-05-17T20:18:30.267Z,6.00
2023-05-17T20:21:32.539Z,5.70
2023-05-17T20:24:35.467Z,5.60
2023-05-17T20:27:38.035Z,5.20
2023-05-17T20:30:44.257Z,5.10
2023-05-17T20:33:46.928Z,5.80
2023-05-17T20:36:49.038Z,5.20
2023-05-17T20:39:51.757Z,4.80
2023-05-17T20:42:54.050Z,5.10
2023-05-17T20:45:56.766Z,4.80
2023-05-17T20:49:01.602Z,5.50
2023-05-17T20:52:04.865Z,4.90
2023-05-17T20:55:09.828Z,5.40
2023-05-17T20:58:12.077Z,4.60
2023-05-17T21:01:15.179Z,4.50
2023-05-17T21:04:17.962Z,5.20
2023-05-17T21:07:20.650Z,5.10
2023-05-17T21:10:23.666Z,4.80
2023-05-17T21:13:26.801Z,5.70
2023-05-17T21:16:29.528Z,5.10
2023-05-17T21:19:31.924Z,5.00
2023-05-17T21:22:34.000Z,6.00
2023-05-17T21:25:37.984Z,5.00
2023-05-17T21:28:40.154Z,5.00
2023-05-17T21:31:42.704Z,4.70
2023-05-17T21:34:45.698Z,5.50
2023-05-17T21:37:47.876Z,5.20
2023-05-17T21:40:50.200Z,5.00
2023-05-17T21:43:52.519Z,4.50
2023-05-17T21:46:55.769Z,4.90
2023-05-17T21:49:59.463Z,4.60
2023-05-17T21:53:01.713Z,4.80
2023-05-17T21:56:04.920Z,4.60
2023-05-17T21:59:07.062Z,4.30
2023-05-17T22:04:19.139Z,3.90
2023-05-17T22:07:21.447Z,4.00
2023-05-17T22:10:24.616Z,4.40
2023-05-17T22:13:27.152Z,4.50
2023-05-17T22:16:33.466Z,3.90
2023-05-17T22:19:41.067Z,3.70
2023-05-17T22:25:46.848Z,4.60
2023-05-17T22:28:50.826Z,3.90
2023-05-17T22:31:53.320Z,3.60
2023-05-17T22:34:56.478Z,4.00
2023-05-17T22:37:58.660Z,4.30
2023-05-17T22:41:00.809Z,4.30
2023-05-17T22:44:03.390Z,4.00
2023-05-17T22:47:06.279Z,3.70
2023-05-17T22:50:11.009Z,4.20
2023-05-17T22:53:16.560Z,4.10
2023-05-17T22:56:18.719Z,3.70
2023-05-17T22:59:20.791Z,4.20
2023-05-17T23:02:23.406Z,3.90
2023-05-17T23:05:25.747Z,3.40
2023-05-17T23:08:30.365Z,4.20
2023-05-17T23:11:34.971Z,3.40
2023-05-17T23:14:37.447Z,3.90
2023-05-17T23:17:40.153Z,4.50
2023-05-17T23:20:43.460Z,3.90
2023-05-17T23:23:45.631Z,4.20
2023-05-17T23:26:47.808Z,4.20
2023-05-17T23:29:49.950Z,3.70
2023-05-17T23:32:53.047Z,3.80
2023-05-17T23:35:56.054Z,3.00
2023-05-17T23:38:58.253Z,4.30
2023-05-17T23:42:00.894Z,3.60
2023-05-17T23:45:04.119Z,3.70
2023-05-17T23:48:10.183Z,4.40
2023-05-17T23:51:12.398Z,3.50
2023-05-17T23:54:16.457Z,3.80
2023-05-17T23:57:18.735Z,3.50
